createdAt,value
2023-01-30T00:01:01.328Z,1.63
2023-01-30T00:03:28.759Z,1.59
2023-01-30T00:06:00.755Z,1.59
2023-01-30T00:08:28.318Z,1.48
2023-01-30T00:10:55.718Z,1.51
2023-01-30T00:13:23.119Z,1.53
2023-01-30T00:15:50.399Z,1.41
2023-01-30T00:18:17.726Z,1.45
2023-01-30T00:20:45.078Z,1.44
2023-01-30T00:23:12.413Z,1.48
2023-01-30T00:25:39.984Z,1.45
2023-01-30T00:28:07.410Z,1.34
2023-01-30T00:30:36.047Z,1.29
2023-01-30T00:33:03.504Z,1.20
2023-01-30T00:35:30.936Z,1.18
2023-01-30T00:37:59.442Z,1.15
2023-01-30T00:40:28.807Z,1.18
2023-01-30T00:43:14.997Z,1.21
2023-01-30T00:46:04.056Z,1.32
2023-01-30T00:48:32.352Z,1.25
2023-01-30T00:50:59.654Z,1.20
2023-01-30T00:53:28.214Z,1.31
2023-01-30T00:55:56.286Z,1.25
2023-01-30T00:58:24.390Z,1.07
2023-01-30T01:00:52.342Z,0.81
2023-01-30T01:03:20.445Z,0.85
2023-01-30T01:05:48.517Z,0.99
2023-01-30T01:08:16.613Z,1.05
2023-01-30T01:10:44.044Z,0.92
2023-01-30T01:13:11.387Z,0.84
2023-01-30T01:15:38.727Z,0.78
2023-01-30T01:18:06.388Z,0.74
2023-01-30T01:20:33.973Z,0.76
2023-01-30T01:23:01.268Z,0.82
2023-01-30T01:25:28.829Z,0.82
2023-01-30T01:27:56.200Z,0.75
2023-01-30T01:30:23.691Z,0.72
2023-01-30T01:32:51.093Z,0.59
2023-01-30T01:35:20.199Z,0.63
2023-01-30T01:37:47.823Z,0.68
2023-01-30T01:40:39.038Z,0.59
2023-01-30T01:43:19.874Z,0.55
2023-01-30T01:45:51.743Z,0.60
2023-01-30T01:48:26.996Z,0.74
2023-01-30T01:51:01.831Z,0.76
2023-01-30T01:53:35.295Z,0.74
2023-01-30T01:56:05.531Z,0.80
2023-01-30T01:59:06.159Z,0.74
2023-01-30T02:01:33.998Z,0.74
2023-01-30T02:04:05.766Z,0.57
2023-01-30T02:06:32.999Z,0.33
2023-01-30T02:09:08.663Z,0.39
2023-01-30T02:11:56.103Z,0.33
2023-01-30T02:14:23.794Z,0.32
2023-01-30T02:16:51.526Z,0.45
2023-01-30T02:19:45.208Z,0.49
2023-01-30T02:22:18.805Z,0.59
2023-01-30T02:25:08.148Z,0.66
2023-01-30T02:28:10.483Z,0.67
2023-01-30T02:31:02.622Z,0.64
2023-01-30T02:33:43.243Z,0.64
2023-01-30T02:36:15.623Z,0.63
2023-01-30T02:38:55.923Z,0.66
2023-01-30T02:41:42.142Z,0.70
2023-01-30T02:44:29.508Z,0.65
2023-01-30T02:46:59.084Z,0.63
2023-01-30T02:49:40.224Z,0.67
2023-01-30T02:52:11.895Z,0.64
2023-01-30T02:54:39.270Z,0.55
2023-01-30T02:57:25.633Z,0.60
2023-01-30T03:00:03.048Z,0.59
2023-01-30T03:02:31.629Z,0.59
2023-01-30T03:05:11.557Z,0.57
2023-01-30T03:07:47.965Z,0.45
2023-01-30T03:10:31.156Z,0.39
2023-01-30T03:13:14.873Z,0.23
2023-01-30T03:15:49.852Z,0.22
2023-01-30T03:18:19.656Z,0.08
2023-01-30T03:20:47.701Z,0.03
2023-01-30T03:23:33.874Z,0.03
2023-01-30T03:26:11.085Z,0.12
2023-01-30T03:28:38.671Z,0.12
2023-01-30T03:31:06.299Z,0.16
2023-01-30T03:33:33.639Z,0.03
2023-01-30T03:36:01.117Z,-0.02
2023-01-30T03:38:28.438Z,0.06
2023-01-30T03:40:55.953Z,0.11
2023-01-30T03:43:23.351Z,0.11
2023-01-30T03:45:50.963Z,0.10
2023-01-30T03:48:18.406Z,0.26
2023-01-30T03:50:45.794Z,0.22
2023-01-30T03:53:13.135Z,0.27
2023-01-30T03:55:40.684Z,0.09
2023-01-30T03:58:08.045Z,0.03
2023-01-30T04:00:35.615Z,-0.11
2023-01-30T04:03:03.537Z,-0.14
2023-01-30T04:05:32.178Z,-0.18
2023-01-30T04:08:04.457Z,-0.09
2023-01-30T04:10:31.808Z,-0.04
2023-01-30T04:12:59.126Z,0.01
2023-01-30T04:15:27.274Z,0.02
2023-01-30T04:18:13.306Z,0.08
2023-01-30T04:20:40.811Z,-0.13
2023-01-30T04:23:08.380Z,-0.02
2023-01-30T04:25:35.885Z,-0.12
2023-01-30T04:28:07.952Z,-0.15
2023-01-30T04:30:37.995Z,-0.27
2023-01-30T04:33:25.850Z,-0.15
2023-01-30T04:35:59.962Z,-0.11
2023-01-30T04:38:30.438Z,-0.09
2023-01-30T04:40:58.975Z,-0.09
2023-01-30T04:43:29.894Z,-0.17
2023-01-30T04:46:03.399Z,-0.12
2023-01-30T04:48:31.026Z,-0.21
2023-01-30T04:51:00.672Z,-0.17
2023-01-30T04:53:28.746Z,-0.12
2023-01-30T04:55:56.312Z,-0.11
2023-01-30T04:58:23.830Z,-0.19
2023-01-30T05:00:51.417Z,-0.37
2023-01-30T05:03:18.922Z,-0.37
2023-01-30T05:05:47.584Z,-0.23
2023-01-30T05:08:17.448Z,-0.22
2023-01-30T05:10:44.946Z,-0.20
2023-01-30T05:13:12.398Z,-0.29
2023-01-30T05:15:40.416Z,-0.39
2023-01-30T05:18:07.989Z,-0.34
2023-01-30T05:20:35.532Z,-0.37
2023-01-30T05:23:02.958Z,-0.32
2023-01-30T05:25:30.662Z,-0.31
2023-01-30T05:27:58.081Z,-0.40
2023-01-30T05:30:25.543Z,-0.39
2023-01-30T05:32:53.092Z,-0.39
2023-01-30T05:35:20.818Z,-0.53
2023-01-30T05:37:52.388Z,-0.46
2023-01-30T05:40:19.962Z,-0.54
2023-01-30T05:42:47.393Z,-0.68
2023-01-30T05:45:15.123Z,-0.67
2023-01-30T05:47:42.660Z,-0.65
2023-01-30T05:50:11.029Z,-0.47
2023-01-30T05:52:38.545Z,-0.48
2023-01-30T05:55:07.211Z,-0.42
2023-01-30T05:57:34.789Z,-0.42
2023-01-30T06:00:02.611Z,-0.39
2023-01-30T06:02:40.337Z,-0.42
2023-01-30T06:05:08.655Z,-0.37
2023-01-30T06:07:36.261Z,-0.44
2023-01-30T06:10:04.096Z,-0.42
2023-01-30T06:12:31.730Z,-0.47
2023-01-30T06:14:59.352Z,-0.55
2023-01-30T06:17:29.056Z,-0.63
2023-01-30T06:19:57.307Z,-0.57
2023-01-30T06:22:24.757Z,-0.52
2023-01-30T06:24:52.226Z,-0.43
2023-01-30T06:27:19.681Z,-0.34
2023-01-30T06:29:47.135Z,-0.36
2023-01-30T06:32:15.081Z,-0.46
2023-01-30T06:34:42.593Z,-0.44
2023-01-30T06:37:09.990Z,-0.42
2023-01-30T06:39:37.539Z,-0.34
2023-01-30T06:42:05.637Z,-0.16
2023-01-30T06:44:33.334Z,-0.12
2023-01-30T06:47:00.791Z,-0.10
2023-01-30T06:49:28.272Z,-0.07
2023-01-30T06:51:55.719Z,-0.13
2023-01-30T06:54:23.293Z,-0.14
2023-01-30T06:56:50.942Z,-0.18
2023-01-30T06:59:18.603Z,-0.15
2023-01-30T07:01:46.104Z,-0.06
2023-01-30T07:04:13.908Z,0.05
2023-01-30T07:06:41.506Z,0.15
2023-01-30T07:09:09.005Z,0.19
2023-01-30T07:11:36.387Z,0.14
2023-01-30T07:14:05.683Z,0.21
2023-01-30T07:16:33.753Z,0.34
2023-01-30T07:19:01.252Z,0.44
2023-01-30T07:21:29.034Z,0.71
2023-01-30T07:23:56.511Z,0.98
2023-01-30T07:26:25.030Z,1.39
2023-01-30T07:28:52.520Z,2.03
2023-01-30T07:31:20.039Z,2.70
2023-01-30T07:33:47.922Z,3.30
2023-01-30T07:36:15.345Z,4.06
2023-01-30T07:38:42.727Z,4.20
2023-01-30T07:41:10.151Z,4.44
2023-01-30T07:43:37.764Z,4.66
2023-01-30T07:46:05.319Z,5.14
2023-01-30T07:48:32.698Z,5.86
2023-01-30T07:51:00.259Z,6.15
2023-01-30T07:53:27.835Z,6.01
2023-01-30T07:55:55.232Z,5.60
2023-01-30T07:58:22.676Z,4.79
2023-01-30T08:00:50.133Z,4.45
2023-01-30T08:03:17.738Z,3.94
2023-01-30T08:05:48.346Z,3.55
2023-01-30T08:08:16.128Z,3.13
2023-01-30T08:10:43.732Z,3.15
2023-01-30T08:13:11.185Z,3.21
2023-01-30T08:15:38.489Z,3.31
2023-01-30T08:18:07.463Z,3.60
2023-01-30T08:20:35.009Z,3.45
2023-01-30T08:23:02.659Z,3.64
2023-01-30T08:25:30.766Z,4.02
2023-01-30T08:28:00.414Z,4.03
2023-01-30T08:30:30.383Z,3.20
2023-01-30T08:32:58.671Z,2.69
2023-01-30T08:35:26.211Z,2.61
2023-01-30T08:37:53.667Z,2.55
2023-01-30T08:40:21.417Z,2.36
2023-01-30T08:42:48.974Z,2.16
2023-01-30T08:45:16.429Z,2.20
2023-01-30T08:47:43.997Z,2.40
2023-01-30T08:50:11.638Z,2.21
2023-01-30T08:52:39.159Z,2.16
2023-01-30T08:55:06.898Z,2.23
2023-01-30T08:57:34.432Z,2.16
2023-01-30T09:00:03.835Z,2.14
2023-01-30T09:02:31.748Z,2.42
2023-01-30T09:04:59.185Z,3.52
2023-01-30T09:07:28.879Z,4.18
2023-01-30T09:09:56.364Z,4.99
2023-01-30T09:12:24.602Z,6.35
2023-01-30T09:14:53.909Z,7.41
2023-01-30T09:17:21.992Z,8.11
2023-01-30T09:19:49.511Z,8.73
2023-01-30T09:22:17.263Z,8.76
2023-01-30T09:24:44.973Z,8.12
2023-01-30T09:27:12.425Z,7.39
2023-01-30T09:29:40.097Z,7.03
2023-01-30T09:32:07.587Z,7.05
2023-01-30T09:34:34.960Z,7.01
2023-01-30T09:37:04.802Z,6.80
2023-01-30T09:39:32.596Z,7.49
2023-01-30T09:42:06.251Z,8.57
2023-01-30T09:45:00.143Z,9.17
2023-01-30T09:47:43.774Z,9.99
2023-01-30T09:50:47.081Z,9.61
2023-01-30T09:53:31.782Z,8.53
2023-01-30T09:55:59.603Z,7.63
2023-01-30T09:58:41.460Z,7.75
2023-01-30T10:01:20.727Z,7.14
2023-01-30T10:04:14.102Z,6.47
2023-01-30T10:06:57.441Z,6.72
2023-01-30T10:10:02.169Z,6.30
2023-01-30T10:12:41.742Z,6.32
2023-01-30T10:15:25.210Z,6.14
2023-01-30T10:18:13.861Z,6.02
2023-01-30T10:21:04.174Z,5.81
2023-01-30T10:24:00.833Z,5.42
2023-01-30T10:26:29.018Z,5.70
2023-01-30T10:29:07.551Z,5.53
2023-01-30T10:32:08.103Z,5.41
2023-01-30T10:34:40.289Z,5.44
2023-01-30T10:37:13.768Z,5.70
2023-01-30T10:40:02.779Z,6.12
2023-01-30T10:42:50.618Z,6.24
2023-01-30T10:45:44.649Z,6.24
2023-01-30T10:48:47.374Z,6.57
2023-01-30T10:51:44.405Z,6.66
2023-01-30T10:54:27.921Z,6.89
2023-01-30T10:57:19.194Z,7.68
2023-01-30T10:59:56.184Z,7.00
2023-01-30T11:02:32.502Z,6.63
2023-01-30T11:05:04.215Z,6.74
2023-01-30T11:07:33.663Z,6.70
2023-01-30T11:10:01.309Z,6.96
2023-01-30T11:12:28.671Z,7.32
2023-01-30T11:15:01.346Z,7.01
2023-01-30T11:17:32.741Z,7.80
2023-01-30T11:20:13.787Z,8.09
2023-01-30T11:23:06.564Z,7.76
2023-01-30T11:26:05.517Z,7.94
2023-01-30T11:28:43.936Z,7.86
2023-01-30T11:31:31.521Z,7.72
2023-01-30T11:34:12.914Z,7.79
2023-01-30T11:36:40.518Z,8.05
2023-01-30T11:39:21.103Z,8.16
2023-01-30T11:41:55.479Z,8.04
2023-01-30T11:44:42.553Z,7.62
2023-01-30T11:47:19.457Z,7.66
2023-01-30T11:50:11.028Z,7.65
2023-01-30T11:52:44.105Z,7.83
2023-01-30T11:55:15.708Z,7.97
2023-01-30T11:57:58.579Z,8.09
2023-01-30T12:00:39.876Z,8.36
2023-01-30T12:03:12.194Z,8.25
2023-01-30T12:05:42.719Z,8.32
2023-01-30T12:08:40.790Z,8.35
2023-01-30T12:11:31.427Z,8.48
2023-01-30T12:14:16.395Z,8.85
2023-01-30T12:16:53.960Z,8.97
2023-01-30T12:19:45.845Z,8.85
2023-01-30T12:22:23.178Z,8.99
2023-01-30T12:25:01.810Z,8.99
2023-01-30T12:27:52.455Z,9.01
2023-01-30T12:30:31.260Z,9.09
2023-01-30T12:33:03.888Z,9.15
2023-01-30T12:35:52.471Z,9.27
2023-01-30T12:38:30.811Z,9.26
2023-01-30T12:41:13.325Z,9.50
2023-01-30T12:44:05.340Z,9.57
2023-01-30T12:46:59.411Z,9.82
2023-01-30T12:49:51.552Z,9.98
2023-01-30T12:52:28.102Z,10.00
2023-01-30T12:57:49.108Z,9.47
2023-01-30T13:00:16.750Z,9.64
2023-01-30T13:03:09.264Z,9.44
2023-01-30T13:05:46.433Z,9.43
2023-01-30T13:08:26.973Z,9.48
2023-01-30T13:11:21.859Z,9.52
2023-01-30T13:14:15.567Z,9.28
2023-01-30T13:17:01.562Z,9.28
2023-01-30T13:19:51.787Z,9.32
2023-01-30T13:22:41.109Z,9.78
2023-01-30T13:25:14.405Z,9.51
2023-01-30T13:27:47.391Z,9.48
2023-01-30T13:30:17.998Z,9.49
2023-01-30T13:32:49.556Z,9.31
2023-01-30T13:35:26.043Z,9.27
2023-01-30T13:37:54.638Z,9.33
2023-01-30T13:40:38.552Z,9.29
2023-01-30T13:43:10.054Z,9.34
2023-01-30T13:45:42.240Z,9.36
2023-01-30T13:48:48.154Z,9.56
2023-01-30T13:51:36.658Z,9.44
2023-01-30T13:54:13.057Z,9.39
2023-01-30T13:56:51.171Z,9.42
2023-01-30T13:59:39.296Z,9.43
2023-01-30T14:02:07.285Z,9.40
2023-01-30T14:04:40.832Z,9.31
2023-01-30T14:07:30.937Z,9.34
2023-01-30T14:10:07.255Z,9.51
2023-01-30T14:12:42.083Z,9.35
2023-01-30T14:15:16.262Z,9.23
2023-01-30T14:18:20.924Z,9.16
2023-01-30T14:20:51.084Z,9.19
2023-01-30T14:23:24.431Z,9.03
2023-01-30T14:25:56.509Z,9.03
2023-01-30T14:28:23.917Z,9.03
2023-01-30T14:30:55.817Z,9.04
2023-01-30T14:33:23.172Z,9.03
2023-01-30T14:36:02.863Z,8.94
2023-01-30T14:38:34.963Z,8.97
2023-01-30T14:41:02.225Z,8.90
2023-01-30T14:43:42.096Z,8.96
2023-01-30T14:46:18.784Z,9.04
2023-01-30T14:49:00.918Z,9.03
2023-01-30T14:51:40.466Z,8.95
2023-01-30T14:54:16.928Z,8.76
2023-01-30T14:56:59.664Z,8.55
2023-01-30T14:59:31.413Z,8.56
2023-01-30T15:02:07.953Z,8.50
2023-01-30T15:04:47.558Z,8.47
2023-01-30T15:07:20.563Z,8.50
2023-01-30T15:10:01.191Z,8.46
2023-01-30T15:12:43.109Z,8.19
2023-01-30T15:15:29.341Z,8.11
2023-01-30T15:18:08.542Z,8.10
2023-01-30T15:20:43.277Z,8.03
2023-01-30T15:23:25.131Z,8.13
2023-01-30T15:26:18.645Z,8.16
2023-01-30T15:28:52.059Z,7.99
2023-01-30T15:31:22.518Z,7.96
2023-01-30T15:33:52.413Z,7.86
2023-01-30T15:36:29.165Z,7.94
2023-01-30T15:39:04.851Z,7.92
2023-01-30T15:41:40.601Z,7.84
2023-01-30T15:44:28.024Z,7.65
2023-01-30T15:47:38.726Z,7.62
2023-01-30T15:50:10.297Z,7.50
2023-01-30T15:52:49.307Z,7.47
2023-01-30T15:55:29.633Z,7.35
2023-01-30T15:58:04.254Z,7.40
2023-01-30T16:00:37.329Z,7.10
2023-01-30T16:03:11.019Z,7.04
2023-01-30T16:05:47.559Z,6.95
2023-01-30T16:08:29.705Z,6.90
2023-01-30T16:10:57.364Z,6.72
2023-01-30T16:13:24.804Z,6.56
2023-01-30T16:16:19.099Z,6.48
2023-01-30T16:18:58.156Z,6.41
2023-01-30T16:21:31.406Z,6.36
2023-01-30T16:24:25.757Z,6.39
2023-01-30T16:27:00.847Z,6.30
2023-01-30T16:29:31.438Z,6.18
2023-01-30T16:31:59.544Z,6.13
2023-01-30T16:34:27.194Z,5.97
2023-01-30T16:36:55.252Z,6.09
2023-01-30T16:39:34.274Z,6.18
2023-01-30T16:42:05.121Z,6.22
2023-01-30T16:44:32.705Z,6.03
2023-01-30T16:47:00.053Z,5.93
2023-01-30T16:49:36.425Z,5.79
2023-01-30T16:52:18.099Z,5.77
2023-01-30T16:54:52.220Z,5.69
2023-01-30T16:57:28.680Z,5.68
2023-01-30T16:59:56.401Z,5.62
2023-01-30T17:02:42.438Z,5.57
2023-01-30T17:05:20.898Z,5.49
2023-01-30T17:07:49.935Z,5.45
2023-01-30T17:10:42.040Z,5.47
2023-01-30T17:13:36.139Z,5.41
2023-01-30T17:16:21.784Z,5.28
2023-01-30T17:18:54.897Z,5.25
2023-01-30T17:21:25.555Z,5.16
2023-01-30T17:24:02.792Z,5.07
2023-01-30T17:26:31.627Z,5.12
2023-01-30T17:28:59.733Z,5.16
2023-01-30T17:31:27.189Z,5.17
2023-01-30T17:33:54.650Z,5.22
2023-01-30T17:36:27.399Z,5.29
2023-01-30T17:39:14.059Z,5.22
2023-01-30T17:41:42.931Z,5.12
2023-01-30T17:44:11.371Z,4.99
2023-01-30T17:46:41.108Z,5.14
2023-01-30T17:49:14.572Z,4.99
2023-01-30T17:51:42.877Z,4.83
2023-01-30T17:54:11.485Z,4.87
2023-01-30T17:56:41.413Z,4.80
2023-01-30T17:59:20.195Z,4.82
2023-01-30T18:01:49.774Z,4.72
2023-01-30T18:04:19.212Z,4.71
2023-01-30T18:06:49.431Z,4.80
2023-01-30T18:09:19.200Z,4.65
2023-01-30T18:11:47.448Z,4.49
2023-01-30T18:14:15.969Z,4.43
2023-01-30T18:16:44.745Z,4.34
2023-01-30T18:19:15.121Z,4.24
2023-01-30T18:21:45.144Z,4.22
2023-01-30T18:24:13.728Z,4.19
2023-01-30T18:26:42.538Z,4.15
2023-01-30T18:29:10.308Z,4.07
2023-01-30T18:31:39.321Z,4.11
2023-01-30T18:34:07.989Z,3.99
2023-01-30T18:36:36.438Z,4.01
2023-01-30T18:39:04.928Z,4.00
2023-01-30T18:41:32.555Z,3.95
2023-01-30T18:44:02.201Z,4.02
2023-01-30T18:46:30.314Z,4.23
2023-01-30T18:48:57.809Z,4.20
2023-01-30T18:51:28.028Z,4.02
2023-01-30T18:53:55.736Z,3.85
2023-01-30T18:56:33.387Z,3.73
2023-01-30T18:59:04.142Z,3.66
2023-01-30T19:01:42.600Z,3.63
2023-01-30T19:04:11.638Z,3.69
2023-01-30T19:06:42.055Z,3.65
2023-01-30T19:09:14.327Z,3.51
2023-01-30T19:12:00.243Z,3.55
2023-01-30T19:14:27.594Z,3.58
2023-01-30T19:16:55.005Z,3.52
2023-01-30T19:19:22.453Z,3.52
2023-01-30T19:21:52.169Z,3.50
2023-01-30T19:24:19.734Z,3.47
2023-01-30T19:26:48.360Z,3.37
2023-01-30T19:29:16.521Z,3.43
2023-01-30T19:31:44.199Z,3.43
2023-01-30T19:34:11.850Z,3.27
2023-01-30T19:36:39.815Z,3.30
2023-01-30T19:39:07.878Z,3.30
2023-01-30T19:41:36.749Z,3.35
2023-01-30T19:44:06.776Z,3.22
2023-01-30T19:46:34.723Z,3.15
2023-01-30T19:49:03.469Z,3.10
2023-01-30T19:51:33.591Z,3.04
2023-01-30T19:54:07.140Z,3.02
2023-01-30T19:56:36.601Z,2.98
2023-01-30T19:59:04.090Z,3.03
2023-01-30T20:01:35.427Z,3.00
2023-01-30T20:04:03.487Z,2.87
2023-01-30T20:06:35.841Z,2.78
2023-01-30T20:09:06.182Z,2.74
2023-01-30T20:11:35.979Z,2.75
2023-01-30T20:14:05.362Z,2.74
2023-01-30T20:16:34.794Z,2.80
2023-01-30T20:19:07.154Z,2.76
2023-01-30T20:21:35.902Z,2.74
2023-01-30T20:24:03.942Z,2.67
2023-01-30T20:26:37.387Z,2.75
2023-01-30T20:29:05.849Z,2.76
2023-01-30T20:31:34.883Z,2.79
2023-01-30T20:34:04.200Z,2.89
2023-01-30T20:36:31.768Z,2.79
2023-01-30T20:39:06.444Z,2.76
2023-01-30T20:41:35.778Z,2.84
2023-01-30T20:44:04.035Z,2.84
2023-01-30T20:46:39.666Z,2.79
2023-01-30T20:49:12.838Z,2.77
2023-01-30T20:51:40.336Z,2.75
2023-01-30T20:54:09.452Z,2.74
2023-01-30T20:56:40.140Z,2.66
2023-01-30T20:59:07.792Z,2.59
2023-01-30T21:01:35.945Z,2.53
2023-01-30T21:04:09.803Z,2.54
2023-01-30T21:06:43.567Z,2.57
2023-01-30T21:09:17.744Z,2.49
2023-01-30T21:11:45.932Z,2.44
2023-01-30T21:14:14.655Z,2.34
2023-01-30T21:16:42.142Z,2.30
2023-01-30T21:19:13.883Z,2.33
2023-01-30T21:21:51.301Z,2.29
2023-01-30T21:24:28.243Z,2.31
2023-01-30T21:26:56.290Z,2.24
2023-01-30T21:29:27.065Z,2.30
2023-01-30T21:31:56.375Z,2.28
2023-01-30T21:34:24.190Z,2.32
2023-01-30T21:37:10.267Z,2.26
2023-01-30T21:39:56.106Z,2.30
2023-01-30T21:42:42.045Z,2.26
2023-01-30T21:45:09.479Z,2.33
2023-01-30T21:47:37.123Z,2.20
2023-01-30T21:50:04.921Z,2.24
2023-01-30T21:52:33.317Z,2.26
2023-01-30T21:55:00.867Z,2.12
2023-01-30T21:57:28.253Z,2.11
2023-01-30T21:59:55.731Z,2.20
2023-01-30T22:02:23.115Z,2.29
2023-01-30T22:04:50.385Z,2.28
2023-01-30T22:07:17.903Z,2.18
2023-01-30T22:09:45.297Z,2.11
2023-01-30T22:12:12.710Z,2.10
2023-01-30T22:14:40.318Z,2.04
2023-01-30T22:17:07.736Z,1.93
2023-01-30T22:19:38.421Z,1.90
2023-01-30T22:22:05.924Z,1.84
2023-01-30T22:24:33.239Z,1.80
2023-01-30T22:27:00.606Z,1.75
2023-01-30T22:29:29.164Z,1.84
2023-01-30T22:31:56.623Z,1.73
2023-01-30T22:34:24.003Z,1.81
2023-01-30T22:36:51.870Z,1.73
2023-01-30T22:39:19.221Z,1.76
2023-01-30T22:41:46.596Z,1.81
2023-01-30T22:44:13.904Z,1.74
2023-01-30T22:46:41.680Z,1.81
2023-01-30T22:49:09.955Z,1.76
2023-01-30T22:51:40.645Z,1.65
2023-01-30T22:54:11.280Z,1.77
2023-01-30T22:56:41.225Z,1.77
2023-01-30T22:59:09.561Z,1.83
2023-01-30T23:01:42.201Z,1.85
2023-01-30T23:04:18.037Z,1.74
2023-01-30T23:06:45.731Z,1.64
2023-01-30T23:09:19.225Z,1.64
2023-01-30T23:12:09.959Z,1.90
2023-01-30T23:14:38.318Z,1.80
2023-01-30T23:17:25.907Z,1.63
2023-01-30T23:19:54.620Z,1.59
2023-01-30T23:22:22.606Z,1.71
2023-01-30T23:24:51.301Z,1.84
2023-01-30T23:27:20.632Z,1.64
2023-01-30T23:29:47.935Z,1.60
2023-01-30T23:32:19.095Z,1.50
2023-01-30T23:34:47.737Z,1.66
2023-01-30T23:37:15.954Z,1.68
2023-01-30T23:39:43.533Z,1.58
2023-01-30T23:42:10.951Z,1.54
2023-01-30T23:44:38.728Z,1.61
2023-01-30T23:47:06.156Z,1.58
2023-01-30T23:49:33.476Z,1.53
2023-01-30T23:52:00.821Z,1.58
2023-01-30T23:54:28.153Z,1.46
2023-01-30T23:56:55.567Z,1.44
2023-01-30T23:59:22.875Z,1.36
